createdAt,value
2018-07-10T00:04:08.395Z,22.00
2018-07-10T00:08:55.759Z,21.80
2018-07-10T00:11:28.164Z,21.20
2018-07-10T00:13:56.283Z,20.90
2018-07-10T00:16:24.415Z,21.10
2018-07-10T00:18:53.107Z,21.40
2018-07-10T00:21:21.209Z,21.60
2018-07-10T00:23:50.259Z,21.70
2018-07-10T00:26:18.469Z,21.70
2018-07-10T00:28:47.194Z,21.60
2018-07-10T00:31:17.239Z,21.70
2018-07-10T00:33:45.777Z,21.60
2018-07-10T00:36:14.056Z,21.60
2018-07-10T00:38:53.789Z,21.70
2018-07-10T00:41:24.771Z,21.70
2018-07-10T00:46:21.295Z,21.70
2018-07-10T00:48:49.409Z,21.70
2018-07-10T00:51:17.835Z,21.70
2018-07-10T00:53:45.935Z,21.80
2018-07-10T00:58:42.120Z,21.80
2018-07-10T01:01:10.305Z,21.80
2018-07-10T01:03:38.434Z,21.80
2018-07-10T01:06:06.584Z,21.80
2018-07-10T01:08:34.743Z,21.70
2018-07-10T01:11:06.792Z,21.70
2018-07-10T01:13:34.905Z,21.60
2018-07-10T01:16:03.031Z,21.60
2018-07-10T01:18:39.321Z,21.60
2018-07-10T01:21:08.155Z,21.50
2018-07-10T01:26:04.440Z,21.50
2018-07-10T01:28:32.570Z,21.50
2018-07-10T01:33:28.720Z,21.30
2018-07-10T01:35:57.184Z,21.30
2018-07-10T01:38:25.294Z,21.30
2018-07-10T01:40:53.418Z,21.40
2018-07-10T01:43:21.583Z,21.50
2018-07-10T01:45:49.700Z,21.40
2018-07-10T01:48:17.820Z,21.40
2018-07-10T01:50:46.507Z,21.40
2018-07-10T01:53:14.665Z,21.40
2018-07-10T01:55:42.835Z,21.50
2018-07-10T01:58:10.971Z,21.50
2018-07-10T02:03:12.521Z,21.40
2018-07-10T02:05:41.324Z,21.40
2018-07-10T02:08:09.663Z,21.40
2018-07-10T02:10:37.834Z,21.30
2018-07-10T02:13:06.161Z,21.40
2018-07-10T02:15:34.364Z,21.30
2018-07-10T02:18:02.542Z,21.20
2018-07-10T02:21:09.592Z,21.30
2018-07-10T02:23:39.623Z,21.20
2018-07-10T02:28:38.588Z,21.00
2018-07-10T02:31:06.888Z,21.10
2018-07-10T02:33:35.062Z,21.00
2018-07-10T02:36:03.424Z,20.90
2018-07-10T02:38:31.716Z,20.60
2018-07-10T02:41:00.104Z,20.70
2018-07-10T02:43:28.494Z,20.80
2018-07-10T02:45:57.592Z,21.00
2018-07-10T02:50:56.967Z,20.90
2018-07-10T02:53:27.736Z,21.00
2018-07-10T02:55:55.896Z,21.00
2018-07-10T02:58:25.207Z,20.80
2018-07-10T03:00:53.406Z,20.70
2018-07-10T03:03:21.605Z,20.60
2018-07-10T03:05:49.797Z,20.80
2018-07-10T03:08:17.952Z,20.70
2018-07-10T03:10:46.142Z,20.50
2018-07-10T03:13:14.795Z,20.50
2018-07-10T03:15:42.992Z,20.50
2018-07-10T03:18:11.720Z,20.50
2018-07-10T03:20:39.895Z,20.70
2018-07-10T03:23:08.151Z,20.60
2018-07-10T03:25:37.081Z,20.60
2018-07-10T03:28:05.301Z,20.60
2018-07-10T03:30:33.448Z,20.80
2018-07-10T03:33:01.603Z,20.70
2018-07-10T03:35:29.821Z,20.60
2018-07-10T03:37:58.086Z,20.60
2018-07-10T03:40:27.324Z,20.50
2018-07-10T03:42:55.593Z,20.50
2018-07-10T03:45:24.183Z,20.50
2018-07-10T03:47:53.382Z,20.40
2018-07-10T03:50:21.537Z,20.50
2018-07-10T03:52:50.013Z,20.60
2018-07-10T03:55:18.194Z,20.50
2018-07-10T03:57:47.117Z,20.50
2018-07-10T04:00:15.981Z,20.50
2018-07-10T04:02:49.298Z,20.60
2018-07-10T04:05:19.539Z,20.50
2018-07-10T04:07:49.835Z,20.50
2018-07-10T04:10:19.284Z,20.50
2018-07-10T04:12:50.095Z,20.40
2018-07-10T04:15:18.365Z,20.50
2018-07-10T04:17:56.336Z,20.30
2018-07-10T04:20:24.539Z,20.30
2018-07-10T04:22:54.799Z,20.30
2018-07-10T04:25:27.316Z,20.30
2018-07-10T04:28:05.055Z,20.30
2018-07-10T04:30:50.972Z,20.40
2018-07-10T04:33:19.415Z,20.50
2018-07-10T04:35:47.636Z,20.40
2018-07-10T04:38:18.197Z,20.30
2018-07-10T04:40:46.336Z,20.50
2018-07-10T04:43:16.990Z,20.50
2018-07-10T04:45:46.251Z,20.60
2018-07-10T04:48:20.961Z,20.50
2018-07-10T04:50:51.988Z,20.50
2018-07-10T04:53:34.161Z,20.30
2018-07-10T04:56:02.312Z,20.30
2018-07-10T04:58:30.499Z,20.30
2018-07-10T05:01:03.336Z,20.40
2018-07-10T05:03:31.844Z,20.20
2018-07-10T05:06:02.892Z,20.30
2018-07-10T05:08:31.097Z,20.40
2018-07-10T05:10:59.699Z,20.40
2018-07-10T05:13:28.352Z,20.60
2018-07-10T05:16:05.715Z,20.40
2018-07-10T05:18:34.906Z,20.40
2018-07-10T05:21:11.556Z,20.20
2018-07-10T05:23:39.758Z,20.20
2018-07-10T05:26:09.313Z,19.90
2018-07-10T05:28:37.631Z,19.80
2018-07-10T05:31:06.227Z,19.90
2018-07-10T05:33:34.829Z,20.00
2018-07-10T05:36:03.603Z,20.00
2018-07-10T05:38:38.276Z,20.30
2018-07-10T05:41:06.920Z,20.40
2018-07-10T05:46:06.603Z,20.60
2018-07-10T05:48:34.723Z,20.70
2018-07-10T05:51:02.876Z,20.70
2018-07-10T05:53:30.996Z,20.70
2018-07-10T05:55:59.291Z,20.70
2018-07-10T05:58:27.558Z,20.80
2018-07-10T06:00:55.799Z,20.80
2018-07-10T06:03:23.937Z,20.90
2018-07-10T06:05:52.103Z,21.00
2018-07-10T06:08:20.366Z,21.00
2018-07-10T06:10:48.570Z,21.00
2018-07-10T06:13:16.787Z,20.70
2018-07-10T06:15:44.937Z,20.90
2018-07-10T06:18:13.104Z,21.10
2018-07-10T06:20:41.259Z,21.00
2018-07-10T06:23:09.423Z,21.10
2018-07-10T06:25:37.593Z,21.20
2018-07-10T06:28:12.090Z,21.20
2018-07-10T06:30:41.343Z,21.50
2018-07-10T06:33:18.831Z,21.00
2018-07-10T06:35:48.052Z,21.00
2018-07-10T06:38:18.544Z,21.20
2018-07-10T06:40:49.575Z,21.20
2018-07-10T06:43:27.201Z,21.00
2018-07-10T06:45:55.784Z,20.90
2018-07-10T06:48:23.958Z,21.10
2018-07-10T06:50:53.022Z,21.30
2018-07-10T06:53:24.727Z,21.40
2018-07-10T06:55:54.543Z,21.60
2018-07-10T06:58:24.070Z,21.60
2018-07-10T07:00:53.248Z,21.50
2018-07-10T07:03:22.737Z,21.60
2018-07-10T07:05:50.903Z,21.60
2018-07-10T07:08:20.342Z,21.80
2018-07-10T07:10:48.528Z,21.70
2018-07-10T07:13:16.799Z,21.50
2018-07-10T07:15:45.018Z,21.00
2018-07-10T07:18:13.177Z,20.70
2018-07-10T07:20:41.403Z,20.40
2018-07-10T07:23:09.600Z,20.60
2018-07-10T07:28:05.908Z,20.90
2018-07-10T07:30:34.555Z,21.20
2018-07-10T07:33:02.738Z,21.20
2018-07-10T07:35:30.911Z,21.00
2018-07-10T07:37:59.088Z,21.30
2018-07-10T07:40:27.278Z,21.20
2018-07-10T07:42:56.813Z,21.20
2018-07-10T07:45:25.029Z,21.20
2018-07-10T07:47:53.243Z,21.20
2018-07-10T07:50:21.427Z,21.30
2018-07-10T07:52:49.627Z,21.00
2018-07-10T07:55:17.820Z,21.20
2018-07-10T07:57:46.175Z,21.30
2018-07-10T08:00:14.355Z,21.10
2018-07-10T08:02:42.562Z,20.80
2018-07-10T08:05:10.785Z,20.80
2018-07-10T08:07:38.968Z,20.70
2018-07-10T08:10:07.144Z,20.70
2018-07-10T08:12:35.304Z,20.60
2018-07-10T08:15:04.019Z,20.70
2018-07-10T08:17:38.973Z,20.60
2018-07-10T08:20:07.245Z,20.50
2018-07-10T08:22:35.441Z,20.30
2018-07-10T08:25:04.781Z,20.10
2018-07-10T08:27:34.102Z,20.30
2018-07-10T08:30:02.251Z,20.40
2018-07-10T08:32:31.295Z,20.40
2018-07-10T08:37:27.633Z,20.40
2018-07-10T08:39:56.096Z,19.90
2018-07-10T08:42:24.292Z,20.20
2018-07-10T08:47:20.447Z,20.20
2018-07-10T08:49:48.682Z,20.10
2018-07-10T08:52:16.862Z,20.10
2018-07-10T08:54:45.037Z,20.00
2018-07-10T08:57:13.401Z,19.80
2018-07-10T08:59:41.613Z,19.90
2018-07-10T09:02:09.703Z,19.80
2018-07-10T09:04:37.871Z,20.10
2018-07-10T09:09:34.270Z,20.20
2018-07-10T09:12:02.852Z,20.00
2018-07-10T09:14:31.017Z,20.00
2018-07-10T09:16:59.247Z,19.90
2018-07-10T09:19:29.017Z,19.70
2018-07-10T09:22:01.026Z,19.60
2018-07-10T09:24:29.488Z,19.60
2018-07-10T09:26:57.653Z,19.40
2018-07-10T09:29:26.223Z,19.50
2018-07-10T09:31:54.392Z,19.50
2018-07-10T09:34:22.553Z,19.40
2018-07-10T09:36:50.735Z,19.30
2018-07-10T09:39:18.891Z,19.60
2018-07-10T09:41:47.089Z,19.50
2018-07-10T09:44:15.558Z,19.00
2018-07-10T09:46:43.707Z,19.00
2018-07-10T09:49:12.002Z,19.00
2018-07-10T09:51:41.596Z,18.90
2018-07-10T09:54:10.069Z,18.50
2018-07-10T09:56:38.282Z,18.20
2018-07-10T09:59:06.405Z,18.50
2018-07-10T10:01:35.568Z,18.50
2018-07-10T10:04:04.483Z,18.50
2018-07-10T10:06:32.919Z,18.30
2018-07-10T10:09:01.411Z,18.60
2018-07-10T10:11:29.543Z,18.50
2018-07-10T10:13:57.672Z,18.50
2018-07-10T10:16:25.787Z,18.40
2018-07-10T10:18:55.883Z,18.60
2018-07-10T10:21:25.255Z,18.50
2018-07-10T10:23:54.048Z,18.60
2018-07-10T10:26:22.174Z,18.90
2018-07-10T10:28:50.743Z,18.70
2018-07-10T10:31:18.876Z,18.40
2018-07-10T10:33:46.999Z,18.20
2018-07-10T10:36:15.077Z,18.30
2018-07-10T10:41:13.655Z,18.70
2018-07-10T10:43:42.150Z,18.90
2018-07-10T10:46:10.460Z,19.20
2018-07-10T10:48:38.872Z,19.50
2018-07-10T10:51:06.987Z,19.60
2018-07-10T10:56:03.062Z,19.60
2018-07-10T10:58:31.291Z,19.50
2018-07-10T11:00:59.463Z,19.50
2018-07-10T11:03:27.624Z,19.40
2018-07-10T11:05:56.300Z,19.70
2018-07-10T11:08:24.489Z,19.60
2018-07-10T11:10:52.964Z,19.10
2018-07-10T11:13:21.147Z,19.50
2018-07-10T11:15:50.240Z,19.80
2018-07-10T11:18:29.908Z,20.10
2018-07-10T11:21:02.037Z,19.80
2018-07-10T11:23:42.408Z,20.00
2018-07-10T11:26:12.674Z,20.00
2018-07-10T11:28:40.807Z,20.00
2018-07-10T11:31:08.955Z,19.90
2018-07-10T11:33:37.136Z,19.90
2018-07-10T11:36:05.338Z,19.90
2018-07-10T11:38:33.680Z,20.00
2018-07-10T11:41:01.818Z,19.80
2018-07-10T11:43:30.023Z,19.90
2018-07-10T11:45:58.873Z,20.00
2018-07-10T11:48:27.019Z,20.00
2018-07-10T11:50:55.175Z,19.60
2018-07-10T11:53:23.343Z,19.60
2018-07-10T11:55:51.472Z,19.50
2018-07-10T11:58:20.203Z,19.50
2018-07-10T12:00:48.551Z,19.50
2018-07-10T12:03:16.676Z,19.70
2018-07-10T12:05:44.798Z,19.40
2018-07-10T12:08:13.002Z,19.60
2018-07-10T12:10:41.104Z,19.60
2018-07-10T12:13:09.290Z,19.70
2018-07-10T12:15:37.411Z,19.70
2018-07-10T12:18:05.512Z,19.90
2018-07-10T12:20:35.087Z,19.70
2018-07-10T12:23:05.418Z,19.80
2018-07-10T12:25:38.609Z,20.00
2018-07-10T12:28:08.074Z,19.80
2018-07-10T12:30:36.409Z,19.80
2018-07-10T12:33:05.871Z,20.00
2018-07-10T12:35:33.997Z,20.00
2018-07-10T12:38:02.109Z,20.10
2018-07-10T12:40:30.339Z,20.20
2018-07-10T12:42:58.485Z,20.40
2018-07-10T12:45:26.620Z,20.30
2018-07-10T12:47:54.868Z,20.10
2018-07-10T12:50:23.229Z,20.30
2018-07-10T12:52:51.476Z,20.20
2018-07-10T12:57:48.175Z,20.40
2018-07-10T13:00:16.285Z,20.30
2018-07-10T13:02:50.844Z,20.10
2018-07-10T13:05:19.907Z,20.30
2018-07-10T13:07:48.077Z,20.00
2018-07-10T13:10:16.446Z,20.00
2018-07-10T13:12:44.747Z,20.30
2018-07-10T13:15:14.259Z,20.30
2018-07-10T13:17:45.397Z,20.80
2018-07-10T13:20:14.253Z,21.00
2018-07-10T13:22:42.379Z,21.40
2018-07-10T13:25:10.494Z,21.80
2018-07-10T13:27:38.607Z,22.30
2018-07-10T13:32:34.696Z,23.20
2018-07-10T13:35:02.822Z,23.30
2018-07-10T13:37:32.061Z,23.00
2018-07-10T13:40:04.239Z,22.80
2018-07-10T13:42:53.669Z,22.90
2018-07-10T13:45:22.680Z,23.10
2018-07-10T13:47:50.835Z,22.50
2018-07-10T13:50:21.993Z,22.40
2018-07-10T13:52:50.453Z,22.60
2018-07-10T13:55:18.828Z,22.80
2018-07-10T13:57:56.317Z,22.60
2018-07-10T14:00:24.460Z,22.60
2018-07-10T14:02:53.596Z,22.50
2018-07-10T14:05:22.279Z,22.40
2018-07-10T14:07:50.406Z,22.20
2018-07-10T14:10:18.595Z,22.20
2018-07-10T14:12:46.742Z,22.00
2018-07-10T14:15:14.907Z,22.00
2018-07-10T14:20:18.273Z,21.90
2018-07-10T14:22:46.348Z,22.00
2018-07-10T14:25:14.496Z,21.80
2018-07-10T14:27:42.617Z,21.80
2018-07-10T14:30:10.756Z,21.80
2018-07-10T14:32:39.637Z,21.80
2018-07-10T14:35:07.753Z,21.70
2018-07-10T14:37:36.537Z,21.40
2018-07-10T14:40:04.655Z,21.80
2018-07-10T14:42:32.846Z,21.80
2018-07-10T14:45:03.912Z,22.00
2018-07-10T14:47:32.068Z,22.10
2018-07-10T14:50:00.279Z,22.30
2018-07-10T14:52:28.497Z,22.20
2018-07-10T14:54:56.929Z,22.20
2018-07-10T14:57:25.137Z,22.10
2018-07-10T14:59:53.341Z,22.30
2018-07-10T15:02:21.496Z,22.10
2018-07-10T15:04:49.657Z,21.70
2018-07-10T15:07:17.831Z,21.60
2018-07-10T15:09:46.203Z,21.50
2018-07-10T15:12:14.450Z,21.80
2018-07-10T15:14:42.699Z,22.10
2018-07-10T15:17:16.417Z,21.50
2018-07-10T15:19:44.600Z,21.60
2018-07-10T15:22:12.809Z,21.80
2018-07-10T15:24:40.934Z,22.00
2018-07-10T15:27:09.108Z,21.90
2018-07-10T15:29:38.165Z,21.90
2018-07-10T15:32:06.339Z,21.80
2018-07-10T15:34:34.507Z,21.60
2018-07-10T15:37:02.677Z,21.30
2018-07-10T15:39:30.855Z,21.20
2018-07-10T15:41:59.024Z,20.40
2018-07-10T15:44:27.205Z,20.10
2018-07-10T15:46:55.431Z,19.70
2018-07-10T15:49:23.592Z,19.90
2018-07-10T15:51:52.106Z,20.40
2018-07-10T15:54:20.564Z,20.60
2018-07-10T15:56:48.728Z,20.70
2018-07-10T15:59:16.940Z,21.00
2018-07-10T16:01:45.103Z,21.10
2018-07-10T16:04:13.471Z,21.10
2018-07-10T16:06:41.811Z,21.20
2018-07-10T16:09:16.659Z,21.20
2018-07-10T16:11:45.295Z,21.10
2018-07-10T16:14:13.689Z,21.10
2018-07-10T16:19:13.079Z,21.20
2018-07-10T16:21:47.829Z,21.30
2018-07-10T16:24:16.472Z,21.30
2018-07-10T16:26:44.623Z,21.60
2018-07-10T16:29:15.319Z,21.90
2018-07-10T16:31:44.899Z,22.30
2018-07-10T16:34:13.201Z,22.70
2018-07-10T16:36:41.483Z,23.00
2018-07-10T16:39:09.710Z,23.10
2018-07-10T16:41:43.316Z,23.20
2018-07-10T16:44:11.697Z,23.20
2018-07-10T16:46:41.161Z,23.30
2018-07-10T16:51:48.163Z,23.00
2018-07-10T16:54:16.596Z,22.70
2018-07-10T16:56:44.960Z,22.70
2018-07-10T16:59:13.148Z,22.60
2018-07-10T17:01:41.271Z,22.60
2018-07-10T17:04:09.433Z,22.60
2018-07-10T17:06:37.948Z,22.70
2018-07-10T17:09:06.127Z,22.70
2018-07-10T17:11:34.283Z,22.70
2018-07-10T17:14:02.467Z,22.60
2018-07-10T17:16:30.903Z,22.50
2018-07-10T17:18:59.066Z,22.60
2018-07-10T17:21:28.083Z,22.70
2018-07-10T17:23:58.871Z,22.70
2018-07-10T17:26:27.049Z,22.70
2018-07-10T17:28:55.239Z,22.80
2018-07-10T17:31:23.383Z,22.90
2018-07-10T17:33:51.551Z,22.80
2018-07-10T17:36:19.732Z,22.80
2018-07-10T17:38:48.597Z,22.70
2018-07-10T17:41:16.757Z,22.50
2018-07-10T17:43:45.141Z,22.30
2018-07-10T17:46:13.313Z,22.20
2018-07-10T17:48:41.488Z,22.10
2018-07-10T17:51:09.669Z,22.00
2018-07-10T17:53:38.381Z,22.10
2018-07-10T17:56:06.503Z,22.20
2018-07-10T17:58:34.619Z,22.20
2018-07-10T18:01:02.801Z,22.20
2018-07-10T18:03:30.924Z,22.20
2018-07-10T18:05:59.043Z,22.30
2018-07-10T18:08:28.684Z,22.30
2018-07-10T18:10:57.055Z,22.30
2018-07-10T18:13:25.168Z,22.20
2018-07-10T18:15:53.331Z,22.10
2018-07-10T18:18:21.479Z,22.10
2018-07-10T18:20:49.591Z,22.20
2018-07-10T18:23:17.746Z,22.20
2018-07-10T18:25:45.859Z,22.10
2018-07-10T18:28:13.992Z,22.10
2018-07-10T18:30:42.178Z,22.20
2018-07-10T18:33:10.634Z,22.30
2018-07-10T18:35:38.755Z,22.20
2018-07-10T18:38:06.892Z,22.30
2018-07-10T18:40:35.060Z,22.40
2018-07-10T18:43:03.242Z,22.20
2018-07-10T18:45:31.356Z,22.10
2018-07-10T18:50:28.119Z,22.00
2018-07-10T18:52:57.094Z,22.00
2018-07-10T18:55:25.755Z,21.90
2018-07-10T18:57:59.980Z,21.70
2018-07-10T19:01:35.667Z,21.60
2018-07-10T19:06:32.191Z,21.00
2018-07-10T19:09:00.420Z,20.90
2018-07-10T19:11:29.416Z,20.90
2018-07-10T19:14:02.581Z,20.90
2018-07-10T19:16:31.067Z,20.70
2018-07-10T19:19:02.287Z,20.60
2018-07-10T19:21:34.607Z,20.50
2018-07-10T19:24:18.027Z,20.30
2018-07-10T19:26:47.548Z,20.30
2018-07-10T19:29:20.496Z,20.10
2018-07-10T19:31:49.768Z,20.20
2018-07-10T19:34:18.010Z,20.10
2018-07-10T19:36:48.359Z,20.10
2018-07-10T19:39:16.544Z,20.10
2018-07-10T19:41:44.739Z,20.00
2018-07-10T19:44:13.184Z,19.90
2018-07-10T19:46:41.471Z,19.90
2018-07-10T19:49:09.827Z,19.80
2018-07-10T19:51:39.440Z,19.80
2018-07-10T19:54:10.933Z,19.70
2018-07-10T19:56:39.276Z,19.80
2018-07-10T19:59:08.314Z,19.80
2018-07-10T20:01:55.309Z,19.80
2018-07-10T20:04:29.847Z,19.70
2018-07-10T20:08:06.155Z,19.70
2018-07-10T20:10:37.654Z,19.70
2018-07-10T20:13:11.871Z,19.50
2018-07-10T20:15:49.057Z,19.50
2018-07-10T20:18:28.479Z,19.50
2018-07-10T20:21:05.755Z,19.30
2018-07-10T20:24:11.147Z,19.30
2018-07-10T20:26:48.665Z,19.30
2018-07-10T20:29:22.869Z,19.20
2018-07-10T20:31:59.404Z,19.10
2018-07-10T20:34:34.227Z,19.00
2018-07-10T20:37:02.347Z,18.90
2018-07-10T20:39:36.568Z,18.80
2018-07-10T20:42:05.180Z,18.80
2018-07-10T20:44:38.593Z,18.70
2018-07-10T20:47:06.784Z,18.70
2018-07-10T20:50:08.969Z,18.70
2018-07-10T20:52:57.432Z,18.60
2018-07-10T20:55:32.637Z,18.60
2018-07-10T20:58:04.499Z,18.50
2018-07-10T21:00:41.371Z,18.60
2018-07-10T21:04:19.112Z,18.50
2018-07-10T21:07:01.364Z,18.50
2018-07-10T21:10:08.822Z,18.20
2018-07-10T21:12:45.793Z,18.20
2018-07-10T21:16:20.339Z,18.20
2018-07-10T21:19:00.158Z,18.10
2018-07-10T21:21:34.967Z,17.90
2018-07-10T21:24:19.169Z,18.10
2018-07-10T21:26:54.604Z,18.10
2018-07-10T21:30:02.753Z,18.10
2018-07-10T21:32:39.091Z,18.20
2018-07-10T21:35:07.803Z,18.20
2018-07-10T21:38:12.924Z,18.30
2018-07-10T21:40:49.084Z,18.40
2018-07-10T21:43:21.526Z,18.30
2018-07-10T21:46:59.723Z,18.30
2018-07-10T21:49:51.564Z,18.30
2018-07-10T21:52:19.725Z,18.00
2018-07-10T21:54:48.107Z,18.10
2018-07-10T21:57:18.073Z,18.30
2018-07-10T21:59:53.534Z,18.40
2018-07-10T22:02:21.636Z,18.60
2018-07-10T22:04:52.805Z,18.50
2018-07-10T22:07:21.440Z,18.40
2018-07-10T22:12:20.032Z,18.40
2018-07-10T22:14:48.155Z,18.40
2018-07-10T22:17:18.239Z,18.30
2018-07-10T22:19:47.729Z,18.20
2018-07-10T22:22:19.291Z,18.20
2018-07-10T22:24:48.595Z,18.20
2018-07-10T22:27:16.801Z,18.20
2018-07-10T22:29:50.967Z,18.20
2018-07-10T22:32:24.518Z,18.20
2018-07-10T22:34:52.632Z,18.30
2018-07-10T22:37:20.742Z,18.30
2018-07-10T22:42:16.824Z,18.50
2018-07-10T22:44:48.636Z,18.60
2018-07-10T22:47:18.322Z,18.70
2018-07-10T22:49:48.088Z,18.60
2018-07-10T22:52:16.312Z,18.80
2018-07-10T22:54:44.434Z,18.80
2018-07-10T22:57:13.392Z,18.90
2018-07-10T22:59:43.251Z,18.90
2018-07-10T23:02:11.385Z,18.80
2018-07-10T23:04:39.743Z,18.70
2018-07-10T23:07:08.446Z,18.70
2018-07-10T23:09:37.176Z,18.70
2018-07-10T23:12:05.318Z,18.70
2018-07-10T23:14:34.088Z,18.80
2018-07-10T23:19:30.340Z,18.80
2018-07-10T23:21:58.496Z,18.80
2018-07-10T23:24:26.662Z,18.90
2018-07-10T23:26:54.789Z,18.90
2018-07-10T23:29:31.857Z,19.00
2018-07-10T23:32:00.841Z,19.10
2018-07-10T23:34:28.991Z,19.10
2018-07-10T23:36:59.558Z,19.10
2018-07-10T23:39:36.795Z,19.10
2018-07-10T23:42:08.858Z,19.10
2018-07-10T23:44:39.687Z,19.10
2018-07-10T23:47:17.179Z,19.20
2018-07-10T23:49:45.311Z,19.00
2018-07-10T23:54:47.787Z,19.00
2018-07-10T23:57:16.915Z,19.00
2018-07-10T23:59:45.079Z,19.00
